createdAt,value
2022-11-11T00:02:00.114Z,2.40
2022-11-11T00:07:40.808Z,2.70
2022-11-11T00:13:21.834Z,2.80
2022-11-11T00:19:22.312Z,2.80
2022-11-11T00:25:06.795Z,3.03
2022-11-11T00:30:47.997Z,2.70
2022-11-11T00:36:29.284Z,2.93
2022-11-11T00:42:10.458Z,2.20
2022-11-11T00:48:10.230Z,3.60
2022-11-11T00:53:50.913Z,2.73
2022-11-11T00:59:31.238Z,2.80
2022-11-11T01:05:11.851Z,3.00
2022-11-11T01:10:52.906Z,2.60
2022-11-11T01:16:33.792Z,3.17
2022-11-11T01:22:14.953Z,2.97
2022-11-11T01:27:56.335Z,3.27
2022-11-11T01:33:37.831Z,3.20
2022-11-11T01:39:19.227Z,3.23
2022-11-11T01:45:00.313Z,3.27
2022-11-11T01:50:41.702Z,3.37
2022-11-11T01:56:22.921Z,3.77
2022-11-11T02:02:12.429Z,3.00
2022-11-11T02:07:57.312Z,3.17
2022-11-11T02:13:59.720Z,2.93
2022-11-11T02:19:48.753Z,2.80
2022-11-11T02:25:31.767Z,2.60
2022-11-11T02:31:13.581Z,2.80
2022-11-11T02:36:54.482Z,4.17
2022-11-11T02:42:36.618Z,2.93
2022-11-11T02:48:17.577Z,3.27
2022-11-11T02:53:59.233Z,3.50
2022-11-11T02:59:41.744Z,3.20
2022-11-11T03:05:23.303Z,3.30
2022-11-11T03:11:04.564Z,2.90
2022-11-11T03:17:04.613Z,3.23
2022-11-11T03:23:02.963Z,3.70
2022-11-11T03:28:43.923Z,3.17
2022-11-11T03:34:25.118Z,2.87
2022-11-11T03:40:06.357Z,3.70
2022-11-11T03:45:47.741Z,3.67
2022-11-11T03:51:29.331Z,3.47
2022-11-11T03:57:28.840Z,3.67
2022-11-11T04:03:38.079Z,3.73
2022-11-11T04:09:37.559Z,3.37
2022-11-11T04:15:47.589Z,3.83
2022-11-11T04:21:43.696Z,3.03
2022-11-11T04:27:25.146Z,3.07
2022-11-11T04:33:05.519Z,3.17
2022-11-11T04:39:04.908Z,3.10
2022-11-11T04:45:05.036Z,3.10
2022-11-11T04:50:46.382Z,3.33
2022-11-11T04:56:45.850Z,3.30
2022-11-11T05:02:45.161Z,3.43
2022-11-11T05:08:44.249Z,2.80
2022-11-11T05:14:43.771Z,3.17
2022-11-11T05:20:56.589Z,3.17
2022-11-11T05:26:37.090Z,3.20
2022-11-11T05:32:20.525Z,3.30
2022-11-11T05:38:23.140Z,3.13
2022-11-11T05:44:04.257Z,2.80
2022-11-11T05:49:45.523Z,3.47
2022-11-11T05:55:26.426Z,3.47
2022-11-11T06:01:07.283Z,2.50
2022-11-11T06:06:47.961Z,3.27
2022-11-11T06:12:49.032Z,4.07
2022-11-11T06:18:31.302Z,3.10
2022-11-11T06:24:12.173Z,3.00
2022-11-11T06:29:52.965Z,4.03
2022-11-11T06:35:35.373Z,3.80
2022-11-11T06:41:20.199Z,3.40
2022-11-11T06:47:01.867Z,3.63
2022-11-11T06:52:42.773Z,3.67
2022-11-11T06:58:24.258Z,4.50
2022-11-11T07:04:05.652Z,3.67
2022-11-11T07:09:46.442Z,3.80
2022-11-11T07:15:28.386Z,3.40
2022-11-11T07:21:09.372Z,3.50
2022-11-11T07:26:50.244Z,3.23
2022-11-11T07:32:31.450Z,3.10
2022-11-11T07:38:11.717Z,3.50
2022-11-11T07:43:53.239Z,3.60
2022-11-11T07:49:34.069Z,3.60
2022-11-11T07:55:15.147Z,3.50
2022-11-11T08:01:01.223Z,3.53
2022-11-11T08:06:45.349Z,3.40
2022-11-11T08:12:44.756Z,3.30
2022-11-11T08:18:25.543Z,3.50
2022-11-11T08:30:10.766Z,3.07
2022-11-11T08:35:55.500Z,3.10
2022-11-11T08:41:36.359Z,3.10
2022-11-11T08:47:17.313Z,3.23
2022-11-11T08:52:58.568Z,3.80
2022-11-11T08:58:39.662Z,3.00
2022-11-11T09:10:22.257Z,2.93
2022-11-11T09:16:02.987Z,3.17
2022-11-11T09:21:44.009Z,2.93
2022-11-11T09:27:24.800Z,2.40
2022-11-11T09:33:05.822Z,2.57
2022-11-11T09:38:46.629Z,2.30
2022-11-11T09:44:42.565Z,2.43
2022-11-11T09:50:25.727Z,2.23
2022-11-11T09:56:29.778Z,2.23
2022-11-11T10:02:38.930Z,1.77
2022-11-11T10:08:27.462Z,1.90
2022-11-11T10:14:08.864Z,2.50
2022-11-11T10:20:09.882Z,2.10
2022-11-11T10:25:56.172Z,2.10
2022-11-11T10:31:37.359Z,2.23
2022-11-11T10:37:39.710Z,2.43
2022-11-11T10:43:24.886Z,2.00
2022-11-11T10:49:21.970Z,2.27
2022-11-11T10:55:09.850Z,2.00
2022-11-11T11:00:52.843Z,2.20
2022-11-11T11:06:37.341Z,2.00
2022-11-11T11:12:37.338Z,2.00
2022-11-11T11:18:18.990Z,2.17
2022-11-11T11:23:59.619Z,1.97
2022-11-11T11:29:44.573Z,2.00
2022-11-11T11:35:42.749Z,1.77
2022-11-11T11:41:42.888Z,2.07
2022-11-11T11:48:03.256Z,1.80
2022-11-11T11:54:15.952Z,1.70
2022-11-11T12:00:14.013Z,2.47
2022-11-11T12:06:03.838Z,2.13
2022-11-11T12:11:56.334Z,1.80
2022-11-11T12:18:01.880Z,2.20
2022-11-11T12:23:55.438Z,1.90
2022-11-11T12:30:04.715Z,2.20
2022-11-11T12:35:53.247Z,2.23
2022-11-11T12:41:52.534Z,1.80
2022-11-11T12:47:45.158Z,2.20
2022-11-11T12:53:40.619Z,1.87
2022-11-11T12:59:44.571Z,1.77
2022-11-11T13:05:49.734Z,2.30
2022-11-11T13:12:17.989Z,1.53
2022-11-11T13:18:02.814Z,1.90
2022-11-11T13:23:43.602Z,2.00
2022-11-11T13:30:02.121Z,1.90
2022-11-11T13:35:48.117Z,2.23
2022-11-11T13:41:38.738Z,2.20
2022-11-11T13:47:23.464Z,2.70
2022-11-11T13:53:07.118Z,2.10
2022-11-11T13:58:50.501Z,2.20
2022-11-11T14:04:32.615Z,2.50
2022-11-11T14:10:16.293Z,2.60
2022-11-11T14:15:57.559Z,2.27
2022-11-11T14:22:00.162Z,2.43
2022-11-11T14:27:45.533Z,2.47
2022-11-11T14:33:38.644Z,1.80
2022-11-11T14:39:41.548Z,2.93
2022-11-11T14:45:31.459Z,2.70
2022-11-11T14:51:42.909Z,2.80
2022-11-11T14:57:37.958Z,2.33
2022-11-11T15:03:34.712Z,1.90
2022-11-11T15:09:19.162Z,2.10
2022-11-11T15:15:24.575Z,2.27
2022-11-11T15:21:28.438Z,2.40
2022-11-11T15:27:18.307Z,2.40
2022-11-11T15:33:05.501Z,2.60
2022-11-11T15:38:47.226Z,2.50
2022-11-11T15:44:32.708Z,2.93
2022-11-11T15:50:18.925Z,2.53
2022-11-11T15:56:02.048Z,2.57
2022-11-11T16:01:44.165Z,2.43
2022-11-11T16:07:35.688Z,2.13
2022-11-11T16:13:21.672Z,2.30
2022-11-11T16:19:15.359Z,2.70
2022-11-11T16:24:57.238Z,2.83
2022-11-11T16:30:38.337Z,2.63
2022-11-11T16:36:19.201Z,2.03
2022-11-11T16:42:05.950Z,2.30
2022-11-11T16:47:49.790Z,2.13
2022-11-11T16:53:36.021Z,2.73
2022-11-11T16:59:22.910Z,3.30
2022-11-11T17:05:03.580Z,2.47
2022-11-11T17:10:44.674Z,2.90
2022-11-11T17:16:25.914Z,2.60
2022-11-11T17:22:09.482Z,3.50
2022-11-11T17:27:50.392Z,4.03
2022-11-11T17:33:31.512Z,4.80
2022-11-11T17:39:12.518Z,5.57
2022-11-11T17:44:53.416Z,5.17
2022-11-11T17:50:36.909Z,4.90
2022-11-11T17:56:19.359Z,4.07
2022-11-11T18:02:02.089Z,4.50
2022-11-11T18:07:45.168Z,4.63
2022-11-11T18:13:27.164Z,5.13
2022-11-11T18:19:12.000Z,4.67
2022-11-11T18:24:53.121Z,4.47
2022-11-11T18:30:41.761Z,4.50
2022-11-11T18:36:23.045Z,4.63
2022-11-11T18:42:04.229Z,5.40
2022-11-11T18:47:50.946Z,5.10
2022-11-11T18:53:34.273Z,4.60
2022-11-11T18:59:15.488Z,4.53
2022-11-11T19:04:56.415Z,4.50
2022-11-11T19:10:37.198Z,4.20
2022-11-11T19:16:23.308Z,4.90
2022-11-11T19:22:04.439Z,4.57
2022-11-11T19:27:46.386Z,4.50
2022-11-11T19:33:28.722Z,6.77
2022-11-11T19:39:10.047Z,6.63
2022-11-11T19:44:51.656Z,6.67
2022-11-11T19:50:33.718Z,6.57
2022-11-11T19:56:17.974Z,6.10
2022-11-11T20:01:59.269Z,5.97
2022-11-11T20:07:40.462Z,5.23
2022-11-11T20:13:21.805Z,5.60
2022-11-11T20:19:03.192Z,5.07
2022-11-11T20:24:44.461Z,6.03
2022-11-11T20:30:25.750Z,4.47
2022-11-11T20:36:10.262Z,4.53
2022-11-11T20:41:53.136Z,5.40
2022-11-11T20:47:34.611Z,5.93
2022-11-11T20:53:15.798Z,5.77
2022-11-11T20:58:57.212Z,6.73
2022-11-11T21:04:38.528Z,6.30
2022-11-11T21:10:19.950Z,6.93
2022-11-11T21:16:09.492Z,6.63
2022-11-11T21:21:52.531Z,5.93
2022-11-11T21:27:34.244Z,6.17
2022-11-11T21:33:14.803Z,5.97
2022-11-11T21:38:56.193Z,6.70
2022-11-11T21:44:37.295Z,6.43
2022-11-11T21:50:17.937Z,6.10
2022-11-11T21:56:02.985Z,5.70
2022-11-11T22:01:44.001Z,5.97
2022-11-11T22:07:27.214Z,6.43
2022-11-11T22:13:07.659Z,6.30
2022-11-11T22:18:52.906Z,5.83
2022-11-11T22:24:33.722Z,6.40
2022-11-11T22:30:14.806Z,6.30
2022-11-11T22:35:59.504Z,6.30
2022-11-11T22:41:41.125Z,6.20
2022-11-11T22:47:22.101Z,6.10
2022-11-11T22:53:03.271Z,5.87
2022-11-11T22:58:45.438Z,6.10
2022-11-11T23:04:26.252Z,6.50
2022-11-11T23:10:07.421Z,6.10
2022-11-11T23:15:53.614Z,5.73
2022-11-11T23:21:35.166Z,5.60
2022-11-11T23:27:16.037Z,5.67
2022-11-11T23:32:57.140Z,5.10
2022-11-11T23:38:38.188Z,5.70
2022-11-11T23:44:19.005Z,5.97
2022-11-11T23:49:59.779Z,5.73
2022-11-11T23:55:40.722Z,5.03
